createdAt,value
2022-08-27T00:00:02.047Z,460.66
2022-08-27T05:00:35.459Z,320.03
2022-08-27T05:15:36.256Z,468.80
2022-08-27T05:45:37.269Z,290.03
2022-08-27T06:00:38.066Z,291.50
2022-08-27T06:15:40.266Z,292.45
2022-08-27T06:30:39.305Z,285.52
2022-08-27T06:45:40.851Z,286.90
2022-08-27T07:00:48.852Z,309.48
2022-08-27T07:30:57.674Z,316.75
2022-08-27T08:15:54.782Z,312.05
2022-08-27T08:30:54.977Z,324.73
2022-08-27T08:45:55.598Z,344.35
2022-08-27T09:46:03.309Z,300.10
2022-08-27T10:01:04.514Z,301.50
2022-08-27T10:16:03.172Z,300.07
2022-08-27T10:31:06.087Z,300.43
2022-08-27T10:54:08.831Z,309.70
2022-08-27T11:09:08.041Z,321.20
2022-08-27T11:24:08.197Z,319.37
2022-08-27T11:39:09.068Z,344.18
2022-08-27T11:54:10.670Z,380.30
2022-08-27T12:09:15.992Z,377.20
2022-08-27T12:24:10.959Z,384.18
2022-08-27T12:39:11.090Z,319.25
2022-08-27T12:54:11.035Z,377.50
2022-08-27T13:09:11.187Z,340.43
2022-08-27T13:24:11.847Z,333.30
2022-08-27T13:39:13.493Z,344.25
2022-08-27T13:54:13.370Z,327.10
2022-08-27T14:09:13.741Z,340.85
2022-08-27T14:24:14.191Z,345.35
2022-08-27T14:39:15.227Z,332.62
2022-08-27T14:54:15.339Z,341.30
2022-08-27T15:09:16.095Z,318.65
2022-08-27T15:24:17.057Z,297.95
2022-08-27T15:39:18.883Z,298.65
2022-08-27T15:54:18.504Z,281.90
2022-08-27T16:09:29.373Z,293.35
2022-08-27T16:24:19.874Z,284.80
2022-08-27T16:39:20.025Z,286.70
2022-08-27T17:24:21.881Z,286.40
2022-08-27T17:39:22.614Z,278.42
2022-08-27T17:54:24.621Z,270.60
2022-08-27T18:09:24.202Z,246.62
2022-08-27T18:24:25.145Z,250.55
2022-08-27T18:39:26.009Z,239.93
2022-08-27T18:54:26.311Z,248.65
2022-08-27T19:09:40.741Z,274.75
2022-08-27T19:24:26.892Z,264.35
2022-08-27T19:39:27.652Z,276.95
2022-08-27T19:54:32.627Z,267.87
2022-08-27T20:09:29.177Z,275.27
2022-08-27T20:24:29.661Z,284.30
2022-08-27T20:39:29.962Z,297.10
2022-08-27T21:24:31.066Z,338.32
2022-08-27T21:39:32.000Z,374.92
2022-08-27T21:54:36.582Z,494.97
2022-08-27T22:09:32.628Z,498.50
2022-08-27T22:39:33.011Z,545.60
2022-08-27T22:54:40.075Z,468.05
2022-08-27T23:09:34.744Z,359.98
2022-08-27T23:24:37.352Z,285.68
2022-08-27T23:39:35.417Z,294.70
